sensor_id;sensor_type;location;lat;lon;timestamp;P1;durP1;ratioP1;P2;durP2;ratioP2
68714;SDS011;55692;53.356;10.030;2024-03-22T00:01:45;19.25;;;9.90;;
68714;SDS011;55692;53.356;10.030;2024-03-22T00:04:11;25.50;;;10.50;;
68714;SDS011;55692;53.356;10.030;2024-03-22T00:06:37;18.98;;;10.60;;
68714;SDS011;55692;53.356;10.030;2024-03-22T00:09:03;24.15;;;10.82;;
68714;SDS011;55692;53.356;10.030;2024-03-22T00:11:30;18.85;;;9.65;;
68714;SDS011;55692;53.356;10.030;2024-03-22T00:13:56;19.85;;;10.20;;
68714;SDS011;55692;53.356;10.030;2024-03-22T00:16:22;23.13;;;10.70;;
68714;SDS011;55692;53.356;10.030;2024-03-22T00:18:48;25.75;;;10.68;;
68714;SDS011;55692;53.356;10.030;2024-03-22T00:21:14;18.73;;;10.90;;
68714;SDS011;55692;53.356;10.030;2024-03-22T00:23:40;21.88;;;10.18;;
68714;SDS011;55692;53.356;10.030;2024-03-22T00:26:06;20.40;;;10.68;;
68714;SDS011;55692;53.356;10.030;2024-03-22T00:28:32;21.25;;;10.80;;
68714;SDS011;55692;53.356;10.030;2024-03-22T00:30:58;20.23;;;11.43;;
68714;SDS011;55692;53.356;10.030;2024-03-22T00:33:24;21.95;;;10.88;;
68714;SDS011;55692;53.356;10.030;2024-03-22T00:35:50;19.92;;;10.68;;
68714;SDS011;55692;53.356;10.030;2024-03-22T00:38:16;21.63;;;10.80;;
68714;SDS011;55692;53.356;10.030;2024-03-22T00:40:42;20.45;;;10.65;;
68714;SDS011;55692;53.356;10.030;2024-03-22T00:43:08;24.65;;;11.75;;
68714;SDS011;55692;53.356;10.030;2024-03-22T00:45:34;21.40;;;11.18;;
68714;SDS011;55692;53.356;10.030;2024-03-22T00:48:00;20.83;;;11.25;;
68714;SDS011;55692;53.356;10.030;2024-03-22T00:50:26;19.23;;;11.00;;
68714;SDS011;55692;53.356;10.030;2024-03-22T00:52:52;21.42;;;10.95;;
68714;SDS011;55692;53.356;10.030;2024-03-22T00:55:20;25.08;;;11.55;;
68714;SDS011;55692;53.356;10.030;2024-03-22T00:57:46;21.15;;;11.57;;
68714;SDS011;55692;53.356;10.030;2024-03-22T01:00:12;19.45;;;11.60;;
68714;SDS011;55692;53.356;10.030;2024-03-22T01:02:39;21.65;;;12.02;;
68714;SDS011;55692;53.356;10.030;2024-03-22T01:05:05;20.00;;;11.05;;
68714;SDS011;55692;53.356;10.030;2024-03-22T01:07:31;29.25;;;11.55;;
68714;SDS011;55692;53.356;10.030;2024-03-22T01:09:57;26.83;;;12.38;;
68714;SDS011;55692;53.356;10.030;2024-03-22T01:12:23;19.58;;;10.73;;
68714;SDS011;55692;53.356;10.030;2024-03-22T01:14:49;24.52;;;12.27;;
68714;SDS011;55692;53.356;10.030;2024-03-22T01:17:15;21.40;;;11.95;;
68714;SDS011;55692;53.356;10.030;2024-03-22T01:19:41;22.13;;;11.82;;
68714;SDS011;55692;53.356;10.030;2024-03-22T01:22:07;25.15;;;12.90;;
68714;SDS011;55692;53.356;10.030;2024-03-22T01:24:33;23.52;;;13.43;;
68714;SDS011;55692;53.356;10.030;2024-03-22T01:26:59;26.35;;;13.75;;
68714;SDS011;55692;53.356;10.030;2024-03-22T01:29:25;24.92;;;13.48;;
68714;SDS011;55692;53.356;10.030;2024-03-22T01:31:55;26.02;;;12.88;;
68714;SDS011;55692;53.356;10.030;2024-03-22T01:34:21;24.15;;;12.73;;
68714;SDS011;55692;53.356;10.030;2024-03-22T01:36:47;24.52;;;13.45;;
68714;SDS011;55692;53.356;10.030;2024-03-22T01:39:13;24.17;;;13.77;;
68714;SDS011;55692;53.356;10.030;2024-03-22T01:41:40;23.30;;;13.05;;
68714;SDS011;55692;53.356;10.030;2024-03-22T01:44:06;25.60;;;14.50;;
68714;SDS011;55692;53.356;10.030;2024-03-22T01:46:32;24.20;;;13.38;;
68714;SDS011;55692;53.356;10.030;2024-03-22T01:48:58;24.98;;;15.05;;
68714;SDS011;55692;53.356;10.030;2024-03-22T01:51:24;23.40;;;13.98;;
68714;SDS011;55692;53.356;10.030;2024-03-22T01:53:51;27.35;;;14.30;;
68714;SDS011;55692;53.356;10.030;2024-03-22T01:56:17;30.75;;;16.52;;
68714;SDS011;55692;53.356;10.030;2024-03-22T01:58:44;28.42;;;16.60;;
68714;SDS011;55692;53.356;10.030;2024-03-22T02:01:10;27.98;;;15.65;;
68714;SDS011;55692;53.356;10.030;2024-03-22T02:03:36;25.02;;;15.77;;
68714;SDS011;55692;53.356;10.030;2024-03-22T02:06:02;31.88;;;17.70;;
68714;SDS011;55692;53.356;10.030;2024-03-22T02:08:28;28.23;;;17.27;;
68714;SDS011;55692;53.356;10.030;2024-03-22T02:10:54;29.42;;;16.23;;
68714;SDS011;55692;53.356;10.030;2024-03-22T02:13:20;27.88;;;16.50;;
68714;SDS011;55692;53.356;10.030;2024-03-22T02:15:46;30.05;;;16.27;;
68714;SDS011;55692;53.356;10.030;2024-03-22T02:18:12;31.13;;;16.70;;
68714;SDS011;55692;53.356;10.030;2024-03-22T02:20:38;34.83;;;18.55;;
68714;SDS011;55692;53.356;10.030;2024-03-22T02:23:04;29.58;;;16.50;;
68714;SDS011;55692;53.356;10.030;2024-03-22T02:25:30;29.00;;;17.35;;
68714;SDS011;55692;53.356;10.030;2024-03-22T02:27:56;32.03;;;17.95;;
68714;SDS011;55692;53.356;10.030;2024-03-22T02:30:22;30.17;;;16.63;;
68714;SDS011;55692;53.356;10.030;2024-03-22T02:32:48;29.00;;;16.35;;
68714;SDS011;55692;53.356;10.030;2024-03-22T02:35:14;29.58;;;16.85;;
68714;SDS011;55692;53.356;10.030;2024-03-22T02:37:40;38.10;;;19.13;;
68714;SDS011;55692;53.356;10.030;2024-03-22T02:40:06;34.45;;;19.67;;
68714;SDS011;55692;53.356;10.030;2024-03-22T02:42:32;30.20;;;16.70;;
68714;SDS011;55692;53.356;10.030;2024-03-22T02:44:58;32.60;;;17.40;;
68714;SDS011;55692;53.356;10.030;2024-03-22T02:47:24;31.15;;;18.02;;
68714;SDS011;55692;53.356;10.030;2024-03-22T02:49:50;32.45;;;17.45;;
68714;SDS011;55692;53.356;10.030;2024-03-22T02:52:16;29.90;;;18.85;;
68714;SDS011;55692;53.356;10.030;2024-03-22T02:54:42;34.88;;;19.20;;
68714;SDS011;55692;53.356;10.030;2024-03-22T02:57:08;30.88;;;18.80;;
68714;SDS011;55692;53.356;10.030;2024-03-22T02:59:34;35.55;;;20.13;;
68714;SDS011;55692;53.356;10.030;2024-03-22T03:02:00;30.88;;;18.40;;
68714;SDS011;55692;53.356;10.030;2024-03-22T03:04:26;33.05;;;19.17;;
68714;SDS011;55692;53.356;10.030;2024-03-22T03:06:52;34.65;;;19.77;;
68714;SDS011;55692;53.356;10.030;2024-03-22T03:09:18;38.47;;;18.67;;
68714;SDS011;55692;53.356;10.030;2024-03-22T03:11:44;35.25;;;18.65;;
68714;SDS011;55692;53.356;10.030;2024-03-22T03:14:10;39.75;;;20.58;;
68714;SDS011;55692;53.356;10.030;2024-03-22T03:16:36;31.13;;;18.38;;
68714;SDS011;55692;53.356;10.030;2024-03-22T03:19:02;38.97;;;20.17;;
68714;SDS011;55692;53.356;10.030;2024-03-22T03:21:28;38.55;;;20.67;;
68714;SDS011;55692;53.356;10.030;2024-03-22T03:23:54;37.53;;;19.77;;
68714;SDS011;55692;53.356;10.030;2024-03-22T03:26:20;31.80;;;19.38;;
68714;SDS011;55692;53.356;10.030;2024-03-22T03:28:46;35.58;;;20.08;;
68714;SDS011;55692;53.356;10.030;2024-03-22T03:31:12;34.92;;;20.77;;
68714;SDS011;55692;53.356;10.030;2024-03-22T03:33:38;35.78;;;20.80;;
68714;SDS011;55692;53.356;10.030;2024-03-22T03:36:04;34.33;;;20.02;;
68714;SDS011;55692;53.356;10.030;2024-03-22T03:38:30;35.92;;;20.95;;
68714;SDS011;55692;53.356;10.030;2024-03-22T03:40:56;35.10;;;20.20;;
68714;SDS011;55692;53.356;10.030;2024-03-22T03:43:22;35.08;;;20.20;;
68714;SDS011;55692;53.356;10.030;2024-03-22T03:45:48;40.80;;;20.67;;
68714;SDS011;55692;53.356;10.030;2024-03-22T03:48:14;38.70;;;21.10;;
68714;SDS011;55692;53.356;10.030;2024-03-22T03:50:40;44.15;;;22.40;;
68714;SDS011;55692;53.356;10.030;2024-03-22T03:53:06;41.70;;;22.30;;
68714;SDS011;55692;53.356;10.030;2024-03-22T03:55:32;41.35;;;22.38;;
68714;SDS011;55692;53.356;10.030;2024-03-22T03:57:58;40.88;;;23.17;;
68714;SDS011;55692;53.356;10.030;2024-03-22T04:00:24;38.20;;;22.83;;
68714;SDS011;55692;53.356;10.030;2024-03-22T04:02:50;42.20;;;23.02;;
68714;SDS011;55692;53.356;10.030;2024-03-22T04:05:16;44.47;;;23.80;;
68714;SDS011;55692;53.356;10.030;2024-03-22T04:07:42;42.55;;;23.42;;
68714;SDS011;55692;53.356;10.030;2024-03-22T04:10:08;42.35;;;23.38;;
68714;SDS011;55692;53.356;10.030;2024-03-22T04:12:34;41.05;;;23.73;;
68714;SDS011;55692;53.356;10.030;2024-03-22T04:15:00;42.70;;;22.58;;
68714;SDS011;55692;53.356;10.030;2024-03-22T04:17:26;43.17;;;23.98;;
68714;SDS011;55692;53.356;10.030;2024-03-22T04:19:52;42.90;;;23.08;;
68714;SDS011;55692;53.356;10.030;2024-03-22T04:22:18;45.28;;;23.65;;
68714;SDS011;55692;53.356;10.030;2024-03-22T04:24:44;48.63;;;24.95;;
68714;SDS011;55692;53.356;10.030;2024-03-22T04:27:10;42.35;;;24.33;;
68714;SDS011;55692;53.356;10.030;2024-03-22T04:29:36;47.45;;;24.90;;
68714;SDS011;55692;53.356;10.030;2024-03-22T04:32:02;50.80;;;25.58;;
68714;SDS011;55692;53.356;10.030;2024-03-22T04:34:28;44.92;;;25.40;;
68714;SDS011;55692;53.356;10.030;2024-03-22T04:36:54;47.08;;;25.45;;
68714;SDS011;55692;53.356;10.030;2024-03-22T04:39:22;50.05;;;25.92;;
68714;SDS011;55692;53.356;10.030;2024-03-22T04:41:49;46.92;;;25.98;;
68714;SDS011;55692;53.356;10.030;2024-03-22T04:44:15;49.10;;;25.30;;
68714;SDS011;55692;53.356;10.030;2024-03-22T04:46:41;47.40;;;26.17;;
68714;SDS011;55692;53.356;10.030;2024-03-22T04:49:07;44.67;;;26.27;;
68714;SDS011;55692;53.356;10.030;2024-03-22T04:51:33;44.88;;;24.98;;
68714;SDS011;55692;53.356;10.030;2024-03-22T04:53:59;46.50;;;25.45;;
68714;SDS011;55692;53.356;10.030;2024-03-22T04:56:25;53.33;;;26.23;;
68714;SDS011;55692;53.356;10.030;2024-03-22T04:58:51;45.83;;;25.30;;
68714;SDS011;55692;53.356;10.030;2024-03-22T05:01:17;45.05;;;24.80;;
68714;SDS011;55692;53.356;10.030;2024-03-22T05:03:43;43.88;;;26.05;;
68714;SDS011;55692;53.356;10.030;2024-03-22T05:06:09;50.70;;;28.38;;
68714;SDS011;55692;53.356;10.030;2024-03-22T05:08:35;48.97;;;25.90;;
68714;SDS011;55692;53.356;10.030;2024-03-22T05:11:01;44.65;;;25.17;;
68714;SDS011;55692;53.356;10.030;2024-03-22T05:13:28;52.03;;;26.58;;
68714;SDS011;55692;53.356;10.030;2024-03-22T05:15:54;55.58;;;27.13;;
68714;SDS011;55692;53.356;10.030;2024-03-22T05:18:20;50.97;;;27.55;;
68714;SDS011;55692;53.356;10.030;2024-03-22T05:20:46;48.78;;;27.73;;
68714;SDS011;55692;53.356;10.030;2024-03-22T05:23:12;55.40;;;29.38;;
68714;SDS011;55692;53.356;10.030;2024-03-22T05:25:37;49.40;;;26.27;;
68714;SDS011;55692;53.356;10.030;2024-03-22T05:28:04;53.15;;;26.98;;
68714;SDS011;55692;53.356;10.030;2024-03-22T05:30:30;53.47;;;28.15;;
68714;SDS011;55692;53.356;10.030;2024-03-22T05:32:56;55.25;;;28.10;;
68714;SDS011;55692;53.356;10.030;2024-03-22T05:35:22;58.13;;;26.80;;
68714;SDS011;55692;53.356;10.030;2024-03-22T05:37:48;55.38;;;28.83;;
68714;SDS011;55692;53.356;10.030;2024-03-22T05:40:14;50.03;;;27.98;;
68714;SDS011;55692;53.356;10.030;2024-03-22T05:42:41;60.40;;;29.65;;
68714;SDS011;55692;53.356;10.030;2024-03-22T05:45:07;52.65;;;28.10;;
68714;SDS011;55692;53.356;10.030;2024-03-22T05:47:33;54.08;;;29.55;;
68714;SDS011;55692;53.356;10.030;2024-03-22T05:49:59;56.30;;;27.92;;
68714;SDS011;55692;53.356;10.030;2024-03-22T05:52:26;53.80;;;28.92;;
68714;SDS011;55692;53.356;10.030;2024-03-22T05:54:52;55.10;;;29.45;;
68714;SDS011;55692;53.356;10.030;2024-03-22T05:57:18;56.42;;;29.02;;
68714;SDS011;55692;53.356;10.030;2024-03-22T05:59:44;53.67;;;28.67;;
68714;SDS011;55692;53.356;10.030;2024-03-22T06:02:10;54.92;;;30.17;;
68714;SDS011;55692;53.356;10.030;2024-03-22T06:04:36;59.90;;;29.38;;
68714;SDS011;55692;53.356;10.030;2024-03-22T06:07:02;64.22;;;31.00;;
68714;SDS011;55692;53.356;10.030;2024-03-22T06:09:29;62.25;;;31.25;;
68714;SDS011;55692;53.356;10.030;2024-03-22T06:12:14;55.60;;;29.45;;
68714;SDS011;55692;53.356;10.030;2024-03-22T06:14:40;59.15;;;30.13;;
68714;SDS011;55692;53.356;10.030;2024-03-22T06:17:08;64.45;;;32.53;;
68714;SDS011;55692;53.356;10.030;2024-03-22T06:19:37;62.88;;;33.85;;
68714;SDS011;55692;53.356;10.030;2024-03-22T06:22:03;61.70;;;31.73;;
68714;SDS011;55692;53.356;10.030;2024-03-22T06:24:29;64.68;;;32.80;;
68714;SDS011;55692;53.356;10.030;2024-03-22T06:26:55;70.00;;;34.58;;
68714;SDS011;55692;53.356;10.030;2024-03-22T06:29:21;69.78;;;34.72;;
68714;SDS011;55692;53.356;10.030;2024-03-22T06:31:47;67.90;;;33.60;;
68714;SDS011;55692;53.356;10.030;2024-03-22T06:34:15;61.58;;;32.75;;
68714;SDS011;55692;53.356;10.030;2024-03-22T06:36:41;63.85;;;32.58;;
68714;SDS011;55692;53.356;10.030;2024-03-22T06:39:07;64.63;;;32.63;;
68714;SDS011;55692;53.356;10.030;2024-03-22T06:41:35;65.30;;;33.42;;
68714;SDS011;55692;53.356;10.030;2024-03-22T06:44:01;61.05;;;31.17;;
68714;SDS011;55692;53.356;10.030;2024-03-22T06:46:27;68.13;;;33.13;;
68714;SDS011;55692;53.356;10.030;2024-03-22T06:48:53;63.45;;;31.05;;
68714;SDS011;55692;53.356;10.030;2024-03-22T06:51:19;64.82;;;33.22;;
68714;SDS011;55692;53.356;10.030;2024-03-22T06:53:45;62.72;;;31.60;;
68714;SDS011;55692;53.356;10.030;2024-03-22T06:56:12;60.53;;;32.22;;
68714;SDS011;55692;53.356;10.030;2024-03-22T06:58:38;62.28;;;32.72;;
68714;SDS011;55692;53.356;10.030;2024-03-22T07:01:05;69.78;;;33.00;;
68714;SDS011;55692;53.356;10.030;2024-03-22T07:03:30;66.85;;;34.22;;
68714;SDS011;55692;53.356;10.030;2024-03-22T07:05:56;61.10;;;32.20;;
68714;SDS011;55692;53.356;10.030;2024-03-22T07:08:23;58.95;;;32.67;;
68714;SDS011;55692;53.356;10.030;2024-03-22T07:10:50;66.90;;;31.67;;
68714;SDS011;55692;53.356;10.030;2024-03-22T07:13:18;63.75;;;31.90;;
68714;SDS011;55692;53.356;10.030;2024-03-22T07:15:44;59.15;;;32.22;;
68714;SDS011;55692;53.356;10.030;2024-03-22T07:18:11;63.47;;;33.50;;
68714;SDS011;55692;53.356;10.030;2024-03-22T07:20:37;61.08;;;33.03;;
68714;SDS011;55692;53.356;10.030;2024-03-22T07:23:03;62.00;;;31.20;;
68714;SDS011;55692;53.356;10.030;2024-03-22T07:25:29;60.90;;;32.20;;
68714;SDS011;55692;53.356;10.030;2024-03-22T07:27:55;61.80;;;32.95;;
68714;SDS011;55692;53.356;10.030;2024-03-22T07:30:21;60.95;;;33.20;;
68714;SDS011;55692;53.356;10.030;2024-03-22T07:32:47;61.35;;;32.38;;
68714;SDS011;55692;53.356;10.030;2024-03-22T07:35:13;65.80;;;33.30;;
68714;SDS011;55692;53.356;10.030;2024-03-22T07:37:39;66.47;;;33.15;;
68714;SDS011;55692;53.356;10.030;2024-03-22T07:40:06;70.32;;;35.10;;
68714;SDS011;55692;53.356;10.030;2024-03-22T07:42:32;68.82;;;33.22;;
68714;SDS011;55692;53.356;10.030;2024-03-22T07:44:58;67.07;;;33.40;;
68714;SDS011;55692;53.356;10.030;2024-03-22T07:47:24;68.43;;;34.55;;
68714;SDS011;55692;53.356;10.030;2024-03-22T07:49:50;62.40;;;32.75;;
68714;SDS011;55692;53.356;10.030;2024-03-22T07:52:16;68.72;;;34.08;;
68714;SDS011;55692;53.356;10.030;2024-03-22T07:54:42;67.80;;;34.42;;
68714;SDS011;55692;53.356;10.030;2024-03-22T07:57:08;69.20;;;35.20;;
68714;SDS011;55692;53.356;10.030;2024-03-22T07:59:35;66.28;;;33.80;;
68714;SDS011;55692;53.356;10.030;2024-03-22T08:02:01;69.40;;;35.00;;
68714;SDS011;55692;53.356;10.030;2024-03-22T08:04:28;67.70;;;34.00;;
68714;SDS011;55692;53.356;10.030;2024-03-22T08:06:54;76.93;;;35.95;;
68714;SDS011;55692;53.356;10.030;2024-03-22T08:09:20;73.57;;;33.90;;
68714;SDS011;55692;53.356;10.030;2024-03-22T08:11:47;67.85;;;33.28;;
68714;SDS011;55692;53.356;10.030;2024-03-22T08:14:13;72.25;;;35.20;;
68714;SDS011;55692;53.356;10.030;2024-03-22T08:16:39;73.93;;;35.58;;
68714;SDS011;55692;53.356;10.030;2024-03-22T08:19:05;71.32;;;34.42;;
68714;SDS011;55692;53.356;10.030;2024-03-22T08:21:31;75.53;;;35.22;;
68714;SDS011;55692;53.356;10.030;2024-03-22T08:23:57;74.28;;;34.10;;
68714;SDS011;55692;53.356;10.030;2024-03-22T08:26:23;66.95;;;34.38;;
68714;SDS011;55692;53.356;10.030;2024-03-22T08:28:49;75.22;;;35.45;;
68714;SDS011;55692;53.356;10.030;2024-03-22T08:31:15;79.47;;;36.28;;
68714;SDS011;55692;53.356;10.030;2024-03-22T08:33:42;79.78;;;36.30;;
68714;SDS011;55692;53.356;10.030;2024-03-22T08:36:08;80.75;;;36.42;;
68714;SDS011;55692;53.356;10.030;2024-03-22T08:38:34;84.57;;;35.30;;
68714;SDS011;55692;53.356;10.030;2024-03-22T08:41:00;88.07;;;37.10;;
68714;SDS011;55692;53.356;10.030;2024-03-22T08:43:26;80.13;;;35.38;;
68714;SDS011;55692;53.356;10.030;2024-03-22T08:45:54;81.93;;;37.92;;
68714;SDS011;55692;53.356;10.030;2024-03-22T08:48:20;86.60;;;36.47;;
68714;SDS011;55692;53.356;10.030;2024-03-22T08:50:46;81.07;;;37.10;;
68714;SDS011;55692;53.356;10.030;2024-03-22T08:53:12;88.45;;;36.55;;
68714;SDS011;55692;53.356;10.030;2024-03-22T08:55:38;89.47;;;38.42;;
68714;SDS011;55692;53.356;10.030;2024-03-22T08:58:10;87.25;;;37.85;;
68714;SDS011;55692;53.356;10.030;2024-03-22T09:00:36;85.72;;;37.88;;
68714;SDS011;55692;53.356;10.030;2024-03-22T09:03:03;84.75;;;37.38;;
68714;SDS011;55692;53.356;10.030;2024-03-22T09:05:29;92.88;;;38.45;;
68714;SDS011;55692;53.356;10.030;2024-03-22T09:07:55;87.35;;;36.67;;
68714;SDS011;55692;53.356;10.030;2024-03-22T09:10:22;90.68;;;37.78;;
68714;SDS011;55692;53.356;10.030;2024-03-22T09:12:48;81.53;;;37.08;;
68714;SDS011;55692;53.356;10.030;2024-03-22T09:15:14;81.88;;;37.60;;
68714;SDS011;55692;53.356;10.030;2024-03-22T09:17:40;79.57;;;35.42;;
68714;SDS011;55692;53.356;10.030;2024-03-22T09:20:06;71.65;;;32.75;;
68714;SDS011;55692;53.356;10.030;2024-03-22T09:22:32;75.93;;;32.78;;
68714;SDS011;55692;53.356;10.030;2024-03-22T09:24:59;70.20;;;32.63;;
68714;SDS011;55692;53.356;10.030;2024-03-22T09:27:25;80.13;;;34.67;;
68714;SDS011;55692;53.356;10.030;2024-03-22T09:29:51;75.20;;;33.55;;
68714;SDS011;55692;53.356;10.030;2024-03-22T09:32:17;73.60;;;32.30;;
68714;SDS011;55692;53.356;10.030;2024-03-22T09:34:44;71.07;;;32.90;;
68714;SDS011;55692;53.356;10.030;2024-03-22T09:37:10;70.97;;;33.67;;
68714;SDS011;55692;53.356;10.030;2024-03-22T09:39:36;74.72;;;31.23;;
68714;SDS011;55692;53.356;10.030;2024-03-22T09:42:02;80.63;;;34.83;;
68714;SDS011;55692;53.356;10.030;2024-03-22T09:44:30;81.25;;;34.95;;
68714;SDS011;55692;53.356;10.030;2024-03-22T09:46:57;75.40;;;34.33;;
68714;SDS011;55692;53.356;10.030;2024-03-22T09:49:24;82.95;;;35.60;;
68714;SDS011;55692;53.356;10.030;2024-03-22T09:51:51;84.78;;;35.67;;
68714;SDS011;55692;53.356;10.030;2024-03-22T09:54:18;80.13;;;35.10;;
68714;SDS011;55692;53.356;10.030;2024-03-22T09:56:44;81.20;;;33.22;;
68714;SDS011;55692;53.356;10.030;2024-03-22T09:59:13;77.85;;;32.42;;
68714;SDS011;55692;53.356;10.030;2024-03-22T10:01:39;84.70;;;33.50;;
68714;SDS011;55692;53.356;10.030;2024-03-22T10:04:05;97.32;;;36.70;;
68714;SDS011;55692;53.356;10.030;2024-03-22T10:06:31;87.47;;;35.45;;
68714;SDS011;55692;53.356;10.030;2024-03-22T10:08:58;88.97;;;35.75;;
68714;SDS011;55692;53.356;10.030;2024-03-22T10:11:25;87.05;;;33.97;;
68714;SDS011;55692;53.356;10.030;2024-03-22T10:13:51;87.55;;;35.67;;
68714;SDS011;55692;53.356;10.030;2024-03-22T10:16:17;93.20;;;36.40;;
68714;SDS011;55692;53.356;10.030;2024-03-22T10:18:43;92.63;;;35.33;;
68714;SDS011;55692;53.356;10.030;2024-03-22T10:21:09;97.43;;;36.85;;
68714;SDS011;55692;53.356;10.030;2024-03-22T10:23:36;98.05;;;35.88;;
68714;SDS011;55692;53.356;10.030;2024-03-22T10:26:02;92.38;;;37.15;;
68714;SDS011;55692;53.356;10.030;2024-03-22T10:28:28;92.28;;;36.97;;
68714;SDS011;55692;53.356;10.030;2024-03-22T10:30:54;84.57;;;36.20;;
68714;SDS011;55692;53.356;10.030;2024-03-22T10:33:21;87.00;;;35.83;;
68714;SDS011;55692;53.356;10.030;2024-03-22T10:35:50;88.32;;;33.42;;
68714;SDS011;55692;53.356;10.030;2024-03-22T10:38:18;88.45;;;36.08;;
68714;SDS011;55692;53.356;10.030;2024-03-22T10:40:44;79.88;;;33.30;;
68714;SDS011;55692;53.356;10.030;2024-03-22T10:43:11;79.72;;;33.85;;
68714;SDS011;55692;53.356;10.030;2024-03-22T10:45:38;80.28;;;32.17;;
68714;SDS011;55692;53.356;10.030;2024-03-22T10:48:04;78.43;;;31.20;;
68714;SDS011;55692;53.356;10.030;2024-03-22T10:50:32;72.90;;;31.58;;
68714;SDS011;55692;53.356;10.030;2024-03-22T10:53:01;73.85;;;32.22;;
68714;SDS011;55692;53.356;10.030;2024-03-22T10:55:33;72.50;;;31.98;;
68714;SDS011;55692;53.356;10.030;2024-03-22T10:57:59;65.45;;;28.63;;
68714;SDS011;55692;53.356;10.030;2024-03-22T11:02:55;62.08;;;29.67;;
68714;SDS011;55692;53.356;10.030;2024-03-22T11:05:21;60.90;;;28.35;;
68714;SDS011;55692;53.356;10.030;2024-03-22T11:07:47;56.97;;;26.73;;
68714;SDS011;55692;53.356;10.030;2024-03-22T11:10:13;55.58;;;27.38;;
68714;SDS011;55692;53.356;10.030;2024-03-22T11:12:40;56.45;;;26.92;;
68714;SDS011;55692;53.356;10.030;2024-03-22T11:15:06;54.75;;;24.70;;
68714;SDS011;55692;53.356;10.030;2024-03-22T11:17:34;51.42;;;25.08;;
68714;SDS011;55692;53.356;10.030;2024-03-22T11:20:00;46.45;;;23.85;;
68714;SDS011;55692;53.356;10.030;2024-03-22T11:22:26;48.25;;;25.23;;
68714;SDS011;55692;53.356;10.030;2024-03-22T11:24:52;51.58;;;24.73;;
68714;SDS011;55692;53.356;10.030;2024-03-22T11:27:18;45.67;;;23.65;;
68714;SDS011;55692;53.356;10.030;2024-03-22T11:29:45;58.05;;;25.83;;
68714;SDS011;55692;53.356;10.030;2024-03-22T11:32:11;51.83;;;25.13;;
68714;SDS011;55692;53.356;10.030;2024-03-22T11:34:38;43.53;;;22.92;;
68714;SDS011;55692;53.356;10.030;2024-03-22T11:37:06;43.55;;;21.60;;
68714;SDS011;55692;53.356;10.030;2024-03-22T11:39:35;46.42;;;22.25;;
68714;SDS011;55692;53.356;10.030;2024-03-22T11:42:04;38.28;;;19.77;;
68714;SDS011;55692;53.356;10.030;2024-03-22T11:44:32;35.45;;;19.35;;
68714;SDS011;55692;53.356;10.030;2024-03-22T11:46:58;37.00;;;17.80;;
68714;SDS011;55692;53.356;10.030;2024-03-22T11:49:24;35.33;;;16.90;;
68714;SDS011;55692;53.356;10.030;2024-03-22T11:51:53;30.23;;;15.93;;
68714;SDS011;55692;53.356;10.030;2024-03-22T11:54:20;29.90;;;15.40;;
68714;SDS011;55692;53.356;10.030;2024-03-22T11:56:46;25.73;;;15.00;;
68714;SDS011;55692;53.356;10.030;2024-03-22T11:59:12;27.10;;;14.43;;
68714;SDS011;55692;53.356;10.030;2024-03-22T12:01:38;25.88;;;14.25;;
68714;SDS011;55692;53.356;10.030;2024-03-22T12:04:04;28.02;;;14.60;;
68714;SDS011;55692;53.356;10.030;2024-03-22T12:06:33;30.27;;;16.00;;
68714;SDS011;55692;53.356;10.030;2024-03-22T12:08:59;25.13;;;13.90;;
68714;SDS011;55692;53.356;10.030;2024-03-22T12:11:26;26.83;;;13.88;;
68714;SDS011;55692;53.356;10.030;2024-03-22T12:13:52;25.90;;;13.90;;
68714;SDS011;55692;53.356;10.030;2024-03-22T12:16:18;26.05;;;13.40;;
68714;SDS011;55692;53.356;10.030;2024-03-22T12:18:44;29.27;;;14.77;;
68714;SDS011;55692;53.356;10.030;2024-03-22T12:21:10;26.88;;;14.10;;
68714;SDS011;55692;53.356;10.030;2024-03-22T12:23:36;32.78;;;15.13;;
68714;SDS011;55692;53.356;10.030;2024-03-22T12:26:02;27.65;;;14.43;;
68714;SDS011;55692;53.356;10.030;2024-03-22T12:28:28;21.92;;;12.40;;
68714;SDS011;55692;53.356;10.030;2024-03-22T12:30:54;21.83;;;11.88;;
68714;SDS011;55692;53.356;10.030;2024-03-22T12:33:20;25.15;;;11.82;;
68714;SDS011;55692;53.356;10.030;2024-03-22T12:35:46;21.20;;;12.00;;
68714;SDS011;55692;53.356;10.030;2024-03-22T12:38:13;22.67;;;12.82;;
68714;SDS011;55692;53.356;10.030;2024-03-22T12:40:39;23.15;;;14.10;;
68714;SDS011;55692;53.356;10.030;2024-03-22T12:43:06;24.45;;;14.45;;
68714;SDS011;55692;53.356;10.030;2024-03-22T12:45:32;25.60;;;14.82;;
68714;SDS011;55692;53.356;10.030;2024-03-22T12:47:58;22.10;;;14.18;;
68714;SDS011;55692;53.356;10.030;2024-03-22T12:50:24;25.17;;;14.45;;
68714;SDS011;55692;53.356;10.030;2024-03-22T12:52:50;22.77;;;13.43;;
68714;SDS011;55692;53.356;10.030;2024-03-22T12:55:16;23.30;;;14.07;;
68714;SDS011;55692;53.356;10.030;2024-03-22T12:57:42;24.55;;;13.80;;
68714;SDS011;55692;53.356;10.030;2024-03-22T13:00:09;19.17;;;12.90;;
68714;SDS011;55692;53.356;10.030;2024-03-22T13:02:41;22.23;;;12.20;;
68714;SDS011;55692;53.356;10.030;2024-03-22T13:05:07;21.90;;;12.40;;
68714;SDS011;55692;53.356;10.030;2024-03-22T13:07:33;17.25;;;11.00;;
68714;SDS011;55692;53.356;10.030;2024-03-22T13:09:59;17.48;;;10.65;;
68714;SDS011;55692;53.356;10.030;2024-03-22T13:12:26;16.58;;;10.95;;
68714;SDS011;55692;53.356;10.030;2024-03-22T13:14:52;19.13;;;11.43;;
68714;SDS011;55692;53.356;10.030;2024-03-22T13:17:18;23.33;;;11.55;;
68714;SDS011;55692;53.356;10.030;2024-03-22T13:19:45;16.80;;;11.15;;
68714;SDS011;55692;53.356;10.030;2024-03-22T13:22:12;18.50;;;11.75;;
68714;SDS011;55692;53.356;10.030;2024-03-22T13:24:38;18.60;;;11.55;;
68714;SDS011;55692;53.356;10.030;2024-03-22T13:27:04;19.08;;;12.20;;
68714;SDS011;55692;53.356;10.030;2024-03-22T13:29:30;18.45;;;11.50;;
68714;SDS011;55692;53.356;10.030;2024-03-22T13:31:56;18.67;;;11.57;;
68714;SDS011;55692;53.356;10.030;2024-03-22T13:34:22;19.15;;;11.18;;
68714;SDS011;55692;53.356;10.030;2024-03-22T13:36:48;18.25;;;11.40;;
68714;SDS011;55692;53.356;10.030;2024-03-22T13:39:14;19.40;;;11.48;;
68714;SDS011;55692;53.356;10.030;2024-03-22T13:41:41;18.55;;;10.73;;
68714;SDS011;55692;53.356;10.030;2024-03-22T13:44:07;17.65;;;11.13;;
68714;SDS011;55692;53.356;10.030;2024-03-22T13:46:33;19.73;;;11.48;;
68714;SDS011;55692;53.356;10.030;2024-03-22T13:49:01;17.50;;;10.77;;
68714;SDS011;55692;53.356;10.030;2024-03-22T13:51:27;20.08;;;11.13;;
68714;SDS011;55692;53.356;10.030;2024-03-22T13:53:54;18.15;;;10.45;;
68714;SDS011;55692;53.356;10.030;2024-03-22T13:56:20;17.60;;;9.55;;
68714;SDS011;55692;53.356;10.030;2024-03-22T13:58:46;19.30;;;10.73;;
68714;SDS011;55692;53.356;10.030;2024-03-22T14:01:14;16.52;;;9.73;;
68714;SDS011;55692;53.356;10.030;2024-03-22T14:03:40;16.65;;;9.18;;
68714;SDS011;55692;53.356;10.030;2024-03-22T14:06:06;18.42;;;9.70;;